Terminal Aerodrome Forecast
Issued by NWS

Home | Current Version | Previous Version | Text Only | Print | Product List | Glossary On
Versions: 1 2 3 4 5 6 7 8 9 10 11 12 13
000
FTUS45 KRIW 222300
TAFRKS
TAF
KRKS 222335Z 2300/2324 24014G24KT 6SM -SHRASN SCT020 BKN035
     FM230030 26020G30KT 2SM -SHSN BLSN SCT008 OVC015
     FM230230 27025G35KT 4SM -SHSN BKN018
     FM231200 28022G30KT P6SM VCSH SCT018 BKN030
     FM231600 32022G30KT P6SM SCT030 BKN080=

USA.gov is the U.S. government's official web portal to all federal, state and local government web resources and services.